DAL2457 KLAX-KPDX
Flight info
| Callsign | DAL2457 |
|---|---|
| Flight time | 1h 52m |
| Altitude | 38000 |
| Route | LADYJ4 CSTRO SHIMR LMT MOXEE TMBRS3 |
| Aircraft | A319/M-SDE3FGHIRWY/LB1 |
Departure
| Time | 2026-05-04 05:41 |
|---|---|
| Airport | Los Angeles International Airport (KLAX) |
Arrival
| Time | 2026-05-04 07:33 |
|---|---|
| Airport | Portland International Airport (KPDX) |
| Time | Latitude | Longitude | Altitude | Speed | Heading |
|---|---|---|---|---|---|
| 2026-05-04 05:03 | 33.94641 | -118.40643 | 93 ft | 0 kts | 263° |
| 2026-05-04 05:31 | 33.94640 | -118.40593 | 93 ft | 3 kts | 319° |
| 2026-05-04 05:31 | 33.94621 | -118.40581 | 93 ft | 3 kts | 343° |
| 2026-05-04 05:32 | 33.94600 | -118.40574 | 94 ft | 2 kts | 346° |
| 2026-05-04 05:32 | 33.94614 | -118.40580 | 92 ft | 3 kts | 340° |
| 2026-05-04 05:32 | 33.94635 | -118.40585 | 93 ft | 1 kts | 353° |
| 2026-05-04 05:35 | 33.94642 | -118.40586 | 93 ft | 5 kts | 353° |
| 2026-05-04 05:35 | 33.94714 | -118.40595 | 95 ft | 12 kts | 354° |
| 2026-05-04 05:36 | 33.94796 | -118.40600 | 93 ft | 12 kts | 359° |
| 2026-05-04 05:36 | 33.94860 | -118.40587 | 94 ft | 8 kts | 46° |
| 2026-05-04 05:36 | 33.94872 | -118.40509 | 94 ft | 12 kts | 83° |
| 2026-05-04 05:36 | 33.94883 | -118.40409 | 94 ft | 12 kts | 82° |
| 2026-05-04 05:37 | 33.94894 | -118.40306 | 94 ft | 12 kts | 83° |
| 2026-05-04 05:37 | 33.94904 | -118.40204 | 94 ft | 13 kts | 83° |
| 2026-05-04 05:37 | 33.94914 | -118.40101 | 94 ft | 9 kts | 83° |
| 2026-05-04 05:38 | 33.94928 | -118.40064 | 95 ft | 0 kts | 38° |
| 2026-05-04 05:39 | 33.94976 | -118.40065 | 94 ft | 9 kts | 350° |
| 2026-05-04 05:39 | 33.95024 | -118.40093 | 94 ft | 7 kts | 297° |
| 2026-05-04 05:40 | 33.94960 | -118.40757 | 98 ft | 102 kts | 263° |
| 2026-05-04 05:40 | 33.94849 | -118.41825 | 96 ft | 154 kts | 263° |
| 2026-05-04 05:40 | 33.94712 | -118.43189 | 488 ft | 167 kts | 262° |
| 2026-05-04 05:41 | 33.94570 | -118.44586 | 1190 ft | 168 kts | 263° |
| 2026-05-04 05:41 | 33.94438 | -118.45976 | 1931 ft | 166 kts | 265° |
| 2026-05-04 05:41 | 33.94323 | -118.47413 | 2399 ft | 182 kts | 267° |
| 2026-05-04 05:41 | 33.94264 | -118.49039 | 2666 ft | 209 kts | 268° |
| 2026-05-04 05:42 | 33.94210 | -118.50904 | 3035 ft | 235 kts | 267° |
| 2026-05-04 05:42 | 33.94090 | -118.52936 | 3708 ft | 249 kts | 265° |
| 2026-05-04 05:42 | 33.93928 | -118.55044 | 4610 ft | 256 kts | 264° |
| 2026-05-04 05:42 | 33.93750 | -118.57210 | 5462 ft | 263 kts | 264° |
| 2026-05-04 05:43 | 33.93574 | -118.59424 | 6290 ft | 267 kts | 266° |
| 2026-05-04 05:43 | 33.93772 | -118.61660 | 7144 ft | 272 kts | 285° |
| 2026-05-04 05:43 | 33.94604 | -118.63731 | 7783 ft | 281 kts | 304° |
| 2026-05-04 05:45 | 34.07588 | -118.67342 | 8000 ft | 287 kts | 350° |
| 2026-05-04 05:45 | 34.09530 | -118.67932 | 8254 ft | 293 kts | 338° |
| 2026-05-04 05:47 | 34.24411 | -118.73958 | 12920 ft | 355 kts | 338° |
| 2026-05-04 05:47 | 34.26770 | -118.74913 | 13638 ft | 360 kts | 338° |
| 2026-05-04 05:47 | 34.29156 | -118.75882 | 14279 ft | 365 kts | 337° |
| 2026-05-04 05:48 | 34.31574 | -118.76866 | 14923 ft | 368 kts | 336° |
| 2026-05-04 05:48 | 34.34016 | -118.77858 | 15581 ft | 372 kts | 336° |
| 2026-05-04 05:48 | 34.36478 | -118.78856 | 16248 ft | 375 kts | 336° |
| 2026-05-04 05:48 | 34.38962 | -118.79863 | 16913 ft | 378 kts | 335° |
| 2026-05-04 05:49 | 34.41466 | -118.80880 | 17559 ft | 381 kts | 335° |
| 2026-05-04 05:49 | 34.43989 | -118.81905 | 18202 ft | 385 kts | 335° |
| 2026-05-04 05:49 | 34.46537 | -118.82943 | 18771 ft | 388 kts | 334° |
| 2026-05-04 05:49 | 34.49101 | -118.83992 | 19338 ft | 391 kts | 334° |
| 2026-05-04 05:51 | 34.67608 | -118.91576 | 23082 ft | 412 kts | 332° |
| 2026-05-04 05:51 | 34.70332 | -118.92696 | 23567 ft | 415 kts | 331° |
| 2026-05-04 05:52 | 34.73074 | -118.93820 | 23982 ft | 418 kts | 331° |
| 2026-05-04 05:52 | 34.75837 | -118.94952 | 24400 ft | 420 kts | 331° |
| 2026-05-04 05:52 | 34.78616 | -118.96091 | 24801 ft | 423 kts | 331° |
| 2026-05-04 05:52 | 34.81409 | -118.97238 | 25185 ft | 425 kts | 330° |
| 2026-05-04 05:53 | 34.84220 | -118.98393 | 25604 ft | 428 kts | 330° |
| 2026-05-04 05:54 | 35.03375 | -119.06309 | 28078 ft | 445 kts | 330° |
| 2026-05-04 05:55 | 35.06321 | -119.07525 | 28423 ft | 448 kts | 330° |
| 2026-05-04 05:55 | 35.09276 | -119.08745 | 28773 ft | 450 kts | 330° |
| 2026-05-04 05:55 | 35.12253 | -119.09977 | 29121 ft | 452 kts | 330° |
| 2026-05-04 05:55 | 35.15245 | -119.11216 | 29448 ft | 455 kts | 330° |
| 2026-05-04 05:56 | 35.18245 | -119.12459 | 29829 ft | 457 kts | 330° |
| 2026-05-04 05:56 | 35.21258 | -119.13710 | 30167 ft | 458 kts | 330° |
| 2026-05-04 05:56 | 35.24282 | -119.14967 | 30456 ft | 459 kts | 330° |
| 2026-05-04 05:56 | 35.27311 | -119.16226 | 30752 ft | 461 kts | 329° |
| 2026-05-04 05:57 | 35.30348 | -119.17491 | 31042 ft | 461 kts | 329° |
| 2026-05-04 05:57 | 35.33388 | -119.18761 | 31338 ft | 462 kts | 328° |
| 2026-05-04 05:57 | 35.36437 | -119.20036 | 31617 ft | 463 kts | 328° |
| 2026-05-04 05:57 | 35.39483 | -119.21310 | 32045 ft | 461 kts | 328° |
| 2026-05-04 05:58 | 35.42509 | -119.22569 | 32512 ft | 458 kts | 327° |
| 2026-05-04 05:58 | 35.45544 | -119.23747 | 32943 ft | 464 kts | 331° |
| 2026-05-04 05:58 | 35.48687 | -119.24687 | 33345 ft | 464 kts | 331° |
| 2026-05-04 05:58 | 35.51776 | -119.25606 | 33738 ft | 462 kts | 330° |
| 2026-05-04 05:59 | 35.54897 | -119.26532 | 34113 ft | 461 kts | 330° |
| 2026-05-04 05:59 | 35.58010 | -119.27456 | 34499 ft | 460 kts | 330° |
| 2026-05-04 05:59 | 35.61109 | -119.28382 | 34811 ft | 458 kts | 331° |
| 2026-05-04 05:59 | 35.64205 | -119.29316 | 35102 ft | 457 kts | 331° |
| 2026-05-04 06:00 | 35.67291 | -119.30244 | 35385 ft | 457 kts | 331° |
| 2026-05-04 06:00 | 35.70374 | -119.31169 | 35653 ft | 456 kts | 331° |
| 2026-05-04 06:00 | 35.73461 | -119.32093 | 35919 ft | 456 kts | 331° |
| 2026-05-04 06:00 | 35.76539 | -119.33015 | 36173 ft | 455 kts | 331° |
| 2026-05-04 06:01 | 35.79618 | -119.33941 | 36441 ft | 455 kts | 333° |
| 2026-05-04 06:01 | 35.82700 | -119.34870 | 36625 ft | 456 kts | 333° |
| 2026-05-04 06:03 | 36.04299 | -119.41400 | 37993 ft | 457 kts | 335° |
| 2026-05-04 06:03 | 36.07387 | -119.42335 | 38001 ft | 456 kts | 335° |
| 2026-05-04 06:05 | 36.35104 | -119.50748 | 38027 ft | 455 kts | 335° |
| 2026-05-04 06:06 | 36.41224 | -119.52613 | 38031 ft | 455 kts | 335° |
| 2026-05-04 06:06 | 36.47369 | -119.54493 | 38014 ft | 455 kts | 335° |
| 2026-05-04 06:07 | 36.53518 | -119.56380 | 38008 ft | 455 kts | 335° |
| 2026-05-04 06:07 | 36.59670 | -119.58263 | 38026 ft | 456 kts | 335° |
| 2026-05-04 06:08 | 36.65827 | -119.60161 | 38016 ft | 456 kts | 335° |
| 2026-05-04 06:08 | 36.71980 | -119.62054 | 38015 ft | 456 kts | 335° |
| 2026-05-04 06:09 | 36.78134 | -119.63946 | 38012 ft | 456 kts | 335° |
| 2026-05-04 06:11 | 37.02767 | -119.71577 | 38009 ft | 456 kts | 335° |
| 2026-05-04 06:13 | 37.27427 | -119.79261 | 37976 ft | 458 kts | 336° |
| 2026-05-04 06:14 | 37.49133 | -119.86073 | 37971 ft | 461 kts | 336° |
| 2026-05-04 06:15 | 37.55327 | -119.88008 | 37991 ft | 462 kts | 336° |
| 2026-05-04 06:15 | 37.61566 | -119.89971 | 37983 ft | 463 kts | 338° |
| 2026-05-04 06:16 | 37.67821 | -119.91959 | 37972 ft | 464 kts | 338° |
| 2026-05-04 06:16 | 37.74082 | -119.93950 | 37970 ft | 464 kts | 338° |
| 2026-05-04 06:17 | 37.80347 | -119.95932 | 37993 ft | 465 kts | 339° |
| 2026-05-04 06:17 | 37.86626 | -119.97929 | 37991 ft | 465 kts | 339° |
| 2026-05-04 06:18 | 37.92901 | -119.99934 | 37988 ft | 465 kts | 339° |
| 2026-05-04 06:20 | 38.17961 | -120.07926 | 38003 ft | 465 kts | 340° |
| 2026-05-04 06:21 | 38.33454 | -120.13512 | 38015 ft | 461 kts | 337° |
| 2026-05-04 06:22 | 38.39567 | -120.16030 | 37996 ft | 462 kts | 338° |
| 2026-05-04 06:25 | 38.82492 | -120.33050 | 37998 ft | 461 kts | 339° |
| 2026-05-04 06:26 | 38.88631 | -120.35491 | 37997 ft | 462 kts | 340° |
| 2026-05-04 06:26 | 38.94760 | -120.37934 | 37987 ft | 461 kts | 339° |
| 2026-05-04 06:27 | 39.10017 | -120.44061 | 38015 ft | 460 kts | 340° |
| 2026-05-04 06:28 | 39.16127 | -120.46519 | 38029 ft | 460 kts | 340° |
| 2026-05-04 06:28 | 39.22232 | -120.48978 | 38044 ft | 459 kts | 341° |
| 2026-05-04 06:29 | 39.28329 | -120.51439 | 38058 ft | 459 kts | 341° |
| 2026-05-04 06:29 | 39.34428 | -120.53900 | 38057 ft | 459 kts | 341° |
| 2026-05-04 06:30 | 39.40518 | -120.56371 | 37951 ft | 459 kts | 341° |
| 2026-05-04 06:30 | 39.46595 | -120.58841 | 37954 ft | 458 kts | 341° |
| 2026-05-04 06:31 | 39.52672 | -120.61312 | 37948 ft | 457 kts | 341° |
| 2026-05-04 06:31 | 39.58734 | -120.63785 | 37961 ft | 457 kts | 342° |
| 2026-05-04 06:33 | 39.82952 | -120.73693 | 37950 ft | 456 kts | 342° |
| 2026-05-04 06:34 | 39.89005 | -120.76185 | 37957 ft | 456 kts | 342° |
| 2026-05-04 06:34 | 39.95059 | -120.78678 | 37956 ft | 456 kts | 342° |
| 2026-05-04 06:36 | 40.19252 | -120.88699 | 37959 ft | 458 kts | 343° |
| 2026-05-04 06:37 | 40.25325 | -120.91221 | 37962 ft | 458 kts | 343° |
| 2026-05-04 06:37 | 40.31388 | -120.93750 | 37985 ft | 457 kts | 343° |
| 2026-05-04 06:38 | 40.37435 | -120.96284 | 37977 ft | 455 kts | 342° |
| 2026-05-04 06:40 | 40.61520 | -121.06372 | 37971 ft | 455 kts | 343° |
| 2026-05-04 06:40 | 40.67531 | -121.08911 | 37979 ft | 454 kts | 343° |
| 2026-05-04 06:41 | 40.73540 | -121.11448 | 37982 ft | 453 kts | 343° |
| 2026-05-04 06:41 | 40.79536 | -121.13995 | 37995 ft | 452 kts | 343° |
| 2026-05-04 06:42 | 40.85524 | -121.16524 | 38002 ft | 451 kts | 343° |
| 2026-05-04 06:44 | 41.09343 | -121.26663 | 37997 ft | 448 kts | 343° |
| 2026-05-04 06:44 | 41.15231 | -121.29184 | 38003 ft | 447 kts | 344° |
| 2026-05-04 06:45 | 41.21136 | -121.31713 | 38006 ft | 446 kts | 344° |
| 2026-05-04 06:45 | 41.27033 | -121.34243 | 38015 ft | 445 kts | 344° |
| 2026-05-04 06:46 | 41.32914 | -121.36773 | 38014 ft | 444 kts | 344° |
| 2026-05-04 06:46 | 41.38782 | -121.39309 | 38020 ft | 443 kts | 344° |
| 2026-05-04 06:48 | 41.61183 | -121.49014 | 37986 ft | 441 kts | 344° |
| 2026-05-04 06:50 | 41.84467 | -121.59165 | 37932 ft | 439 kts | 344° |
| 2026-05-04 06:51 | 41.90278 | -121.61716 | 37944 ft | 439 kts | 344° |
| 2026-05-04 06:51 | 41.96079 | -121.64272 | 37952 ft | 439 kts | 344° |
| 2026-05-04 06:52 | 42.01880 | -121.66824 | 37968 ft | 438 kts | 345° |
| 2026-05-04 06:52 | 42.07668 | -121.69372 | 37987 ft | 437 kts | 344° |
| 2026-05-04 06:53 | 42.13450 | -121.71931 | 37988 ft | 437 kts | 344° |
| 2026-05-04 06:53 | 42.19204 | -121.74579 | 37901 ft | 437 kts | 343° |
| 2026-05-04 06:54 | 42.24911 | -121.77441 | 37893 ft | 437 kts | 342° |
| 2026-05-04 06:54 | 42.30605 | -121.80345 | 37893 ft | 438 kts | 342° |
| 2026-05-04 06:55 | 42.36312 | -121.83226 | 37900 ft | 437 kts | 342° |
| 2026-05-04 06:55 | 42.42011 | -121.86073 | 37906 ft | 437 kts | 343° |
| 2026-05-04 06:57 | 42.64786 | -121.97520 | 37927 ft | 435 kts | 343° |
| 2026-05-04 06:58 | 42.70423 | -122.00362 | 37930 ft | 435 kts | 343° |
| 2026-05-04 06:58 | 42.76094 | -122.03228 | 37939 ft | 435 kts | 343° |
| 2026-05-04 06:59 | 42.81762 | -122.06099 | 37949 ft | 434 kts | 343° |
| 2026-05-04 06:59 | 42.87421 | -122.08977 | 37938 ft | 434 kts | 343° |
| 2026-05-04 07:01 | 43.10005 | -122.20512 | 37963 ft | 432 kts | 344° |
| 2026-05-04 07:02 | 43.15629 | -122.23397 | 37955 ft | 431 kts | 344° |
| 2026-05-04 07:02 | 43.21249 | -122.26280 | 37960 ft | 431 kts | 344° |
| 2026-05-04 07:03 | 43.26869 | -122.29177 | 37944 ft | 431 kts | 344° |
| 2026-05-04 07:03 | 43.32484 | -122.32076 | 37934 ft | 431 kts | 344° |
| 2026-05-04 07:04 | 43.38102 | -122.34977 | 37940 ft | 431 kts | 343° |
| 2026-05-04 07:04 | 43.43704 | -122.37878 | 37935 ft | 430 kts | 343° |
| 2026-05-04 07:05 | 43.49301 | -122.40777 | 37935 ft | 429 kts | 343° |
| 2026-05-04 07:05 | 43.54875 | -122.43690 | 37925 ft | 428 kts | 343° |
| 2026-05-04 07:06 | 43.63227 | -122.48050 | 37912 ft | 428 kts | 343° |
| 2026-05-04 07:07 | 43.68784 | -122.50955 | 37921 ft | 427 kts | 343° |
| 2026-05-04 07:08 | 43.88938 | -122.61544 | 34789 ft | 443 kts | 343° |
| 2026-05-04 07:09 | 43.91832 | -122.63075 | 33944 ft | 447 kts | 343° |
| 2026-05-04 07:09 | 43.94748 | -122.64610 | 33026 ft | 450 kts | 343° |
| 2026-05-04 07:09 | 43.97657 | -122.66143 | 32491 ft | 444 kts | 343° |
| 2026-05-04 07:09 | 44.00525 | -122.67658 | 31923 ft | 439 kts | 343° |
| 2026-05-04 07:10 | 44.03363 | -122.69159 | 31388 ft | 433 kts | 343° |
| 2026-05-04 07:10 | 44.06156 | -122.70644 | 30851 ft | 429 kts | 343° |
| 2026-05-04 07:12 | 44.25350 | -122.74281 | 27246 ft | 383 kts | 7° |
| 2026-05-04 07:12 | 44.27996 | -122.74030 | 26775 ft | 379 kts | 7° |
| 2026-05-04 07:12 | 44.30616 | -122.73781 | 26333 ft | 376 kts | 7° |
| 2026-05-04 07:12 | 44.33217 | -122.73531 | 25881 ft | 373 kts | 7° |
| 2026-05-04 07:13 | 44.35802 | -122.73277 | 25441 ft | 371 kts | 7° |
| 2026-05-04 07:13 | 44.38366 | -122.73021 | 24994 ft | 369 kts | 7° |
| 2026-05-04 07:13 | 44.40920 | -122.72764 | 24548 ft | 367 kts | 7° |
| 2026-05-04 07:14 | 44.50996 | -122.71773 | 22671 ft | 359 kts | 7° |
| 2026-05-04 07:14 | 44.53476 | -122.71524 | 22212 ft | 356 kts | 7° |
| 2026-05-04 07:15 | 44.55934 | -122.71276 | 21754 ft | 353 kts | 7° |
| 2026-05-04 07:15 | 44.58371 | -122.71032 | 21294 ft | 351 kts | 7° |
| 2026-05-04 07:15 | 44.60800 | -122.70790 | 20827 ft | 348 kts | 6° |
| 2026-05-04 07:15 | 44.63208 | -122.70551 | 20375 ft | 347 kts | 6° |
| 2026-05-04 07:16 | 44.65613 | -122.70311 | 19916 ft | 345 kts | 6° |
| 2026-05-04 07:16 | 44.68005 | -122.70071 | 19470 ft | 344 kts | 6° |
| 2026-05-04 07:16 | 44.70357 | -122.69832 | 19016 ft | 343 kts | 6° |
| 2026-05-04 07:16 | 44.72737 | -122.69591 | 18575 ft | 342 kts | 6° |
| 2026-05-04 07:17 | 44.75111 | -122.69351 | 18117 ft | 342 kts | 6° |
| 2026-05-04 07:17 | 44.77479 | -122.69111 | 17608 ft | 341 kts | 6° |
| 2026-05-04 07:17 | 44.79828 | -122.68871 | 17323 ft | 334 kts | 6° |
| 2026-05-04 07:17 | 44.82132 | -122.68640 | 16932 ft | 331 kts | 6° |
| 2026-05-04 07:18 | 44.84423 | -122.68417 | 16513 ft | 329 kts | 5° |
| 2026-05-04 07:18 | 44.86703 | -122.68190 | 16096 ft | 328 kts | 5° |
| 2026-05-04 07:18 | 44.88978 | -122.67961 | 15674 ft | 327 kts | 5° |
| 2026-05-04 07:18 | 44.91248 | -122.67732 | 15256 ft | 327 kts | 5° |
| 2026-05-04 07:19 | 44.93515 | -122.67505 | 14886 ft | 325 kts | 5° |
| 2026-05-04 07:19 | 44.95734 | -122.67282 | 14741 ft | 316 kts | 5° |
| 2026-05-04 07:19 | 44.97912 | -122.67058 | 14455 ft | 312 kts | 5° |
| 2026-05-04 07:19 | 45.00076 | -122.66836 | 14058 ft | 313 kts | 5° |
| 2026-05-04 07:20 | 45.02238 | -122.66619 | 13727 ft | 311 kts | 5° |
| 2026-05-04 07:20 | 45.04401 | -122.66401 | 13366 ft | 309 kts | 5° |
| 2026-05-04 07:20 | 45.06542 | -122.66187 | 13005 ft | 307 kts | 5° |
| 2026-05-04 07:20 | 45.08671 | -122.65970 | 12637 ft | 306 kts | 4° |
| 2026-05-04 07:22 | 45.23278 | -122.64466 | 9604 ft | 296 kts | 5° |
| 2026-05-04 07:22 | 45.25268 | -122.63777 | 9208 ft | 295 kts | 22° |
| 2026-05-04 07:23 | 45.27054 | -122.62388 | 8788 ft | 291 kts | 32° |
| 2026-05-04 07:23 | 45.28734 | -122.60864 | 8279 ft | 289 kts | 32° |
| 2026-05-04 07:23 | 45.30428 | -122.59348 | 7787 ft | 286 kts | 31° |
| 2026-05-04 07:23 | 45.32107 | -122.57846 | 7292 ft | 284 kts | 31° |
| 2026-05-04 07:24 | 45.33774 | -122.56349 | 6746 ft | 284 kts | 31° |
| 2026-05-04 07:24 | 45.35432 | -122.54861 | 6306 ft | 279 kts | 31° |
| 2026-05-04 07:24 | 45.37021 | -122.53435 | 6147 ft | 263 kts | 31° |
| 2026-05-04 07:24 | 45.38541 | -122.52068 | 5828 ft | 256 kts | 31° |
| 2026-05-04 07:25 | 45.40026 | -122.50729 | 5704 ft | 252 kts | 31° |
| 2026-05-04 07:26 | 45.41267 | -122.36600 | 4896 ft | 225 kts | 84° |
| 2026-05-04 07:27 | 45.41789 | -122.34565 | 4777 ft | 220 kts | 50° |
| 2026-05-04 07:27 | 45.42981 | -122.33244 | 4614 ft | 218 kts | 27° |
| 2026-05-04 07:27 | 45.44342 | -122.32300 | 4413 ft | 217 kts | 22° |
| 2026-05-04 07:27 | 45.45813 | -122.31795 | 4060 ft | 221 kts | 2° |
| 2026-05-04 07:28 | 45.47311 | -122.32058 | 3844 ft | 216 kts | 342° |
| 2026-05-04 07:28 | 45.48627 | -122.33003 | 3642 ft | 216 kts | 323° |
| 2026-05-04 07:28 | 45.49662 | -122.34541 | 3404 ft | 217 kts | 304° |
| 2026-05-04 07:28 | 45.50411 | -122.36407 | 3135 ft | 216 kts | 300° |
| 2026-05-04 07:29 | 45.51152 | -122.38292 | 2857 ft | 213 kts | 300° |
| 2026-05-04 07:29 | 45.51868 | -122.40113 | 2623 ft | 206 kts | 300° |
| 2026-05-04 07:29 | 45.52550 | -122.41849 | 2335 ft | 200 kts | 300° |
| 2026-05-04 07:29 | 45.53219 | -122.43551 | 2080 ft | 194 kts | 299° |
| 2026-05-04 07:30 | 45.53859 | -122.45185 | 1830 ft | 182 kts | 299° |
| 2026-05-04 07:30 | 45.54454 | -122.46702 | 1610 ft | 169 kts | 299° |
| 2026-05-04 07:30 | 45.54992 | -122.48075 | 1406 ft | 149 kts | 299° |
| 2026-05-04 07:30 | 45.55478 | -122.49315 | 1239 ft | 139 kts | 298° |
| 2026-05-04 07:31 | 45.55943 | -122.50501 | 1062 ft | 136 kts | 298° |
| 2026-05-04 07:31 | 45.56399 | -122.51666 | 896 ft | 133 kts | 298° |
| 2026-05-04 07:33 | 45.59161 | -122.58753 | 32 ft | 31 kts | 296° |
| 2026-05-04 07:33 | 45.59211 | -122.59020 | 33 ft | 24 kts | 275° |
| 2026-05-04 07:33 | 45.59210 | -122.59213 | 32 ft | 17 kts | 268° |
| 2026-05-04 07:33 | 45.59207 | -122.59370 | 31 ft | 13 kts | 273° |
| 2026-05-04 07:34 | 45.59238 | -122.59475 | 31 ft | 8 kts | 300° |
| 2026-05-04 07:34 | 45.59249 | -122.59517 | 31 ft | 3 kts | 263° |
| 2026-05-04 07:34 | 45.59229 | -122.59537 | 31 ft | 4 kts | 204° |
| 2026-05-04 07:34 | 45.59203 | -122.59566 | 30 ft | 5 kts | 239° |
| 2026-05-04 07:35 | 45.59189 | -122.59605 | 30 ft | 2 kts | 241° |
| 2026-05-04 07:35 | 45.59187 | -122.59611 | 30 ft | 0 kts | 240° |